Terminal Aerodrome Forecast
Issued by NWS Green Bay, WI

Home | Current Version | Previous Version | Text Only | Print | Product List | Glossary On
Versions: 1 2 3 4 5 6 7 8 9 10 11 12 13 14 15 16 17 18 19 20 21 22 23 24 25 26 27 28 29 30 31 32 33 34 35 36 37 38 39 40 41 42 43 44 45
000
FTUS43 KGRB 011246 AAA
TAFGRB
TAF AMD
KGRB 011246Z 0113/0212 18004KT 5SM BR SCT015 SCT040
     FM011500 21005KT 6SM HZ BKN018
     FM011800 21008KT P6SM FEW020 SCT200
     FM020400 21004KT 3SM BR SCT200
      TEMPO 0208/0212 1SM BR BKN005=

USA.gov is the U.S. government's official web portal to all federal, state and local government web resources and services.